Terminal Aerodrome Forecast
Issued by NWS Charleston, SC

Home | Current Version | Previous Version | Text Only | Print | Product List | Glossary On
Versions: 1 2 3 4 5 6 7 8 9 10 11 12 13 14 15 16 17 18 19
000
FTUS42 KCHS 271700
TAFCHS
TAF
KCHS 271731Z 2718/2818 VRB03KT P6SM SCT040
     FM281000 VRB03KT 6SM BR BKN025
     FM281100 VRB02KT 4SM BR BKN010
     FM281600 23008KT P6SM BKN015=

USA.gov is the U.S. government's official web portal to all federal, state and local government web resources and services.